Time;durP1;ratioP1;P1;durP2;ratioP2;P2;SDS_P1;SDS_P2;PMS_P1;PMS_P2;Temp;Humidity;BMP_temperature;BMP_pressure;BME280_temperature;BME280_humidity;BME280_pressure;Samples;Min_cycle;Max_cycle;Signal;HPM_P1;HPM_P2
2023/06/10 00:01:43;;;;;;;12.70;11.00;;;;;;;20.04;61.12;100053.83;131246;1248;106955;-81
2023/06/10 00:04:48;;;;;;;11.60;10.40;;;;;;;20.06;61.22;100059.27;131266;1248;107413;-81
2023/06/10 00:07:55;;;;;;;11.30;10.00;;;;;;;20.08;61.29;100060.45;131341;1250;107528;-80
2023/06/10 00:11:01;;;;;;;13.90;10.90;;;;;;;20.09;61.24;100065.84;131490;1251;107183;-80
2023/06/10 00:14:07;;;;;;;11.70;10.50;;;;;;;20.11;61.31;100067.36;131576;1252;107550;-81
2023/06/10 00:17:12;;;;;;;11.40;10.30;;;;;;;20.12;61.26;100064.40;131389;1255;107467;-80
2023/06/10 00:20:18;;;;;;;12.20;10.60;;;;;;;20.12;61.30;100066.30;131549;1249;107505;-80
2023/06/10 00:23:24;;;;;;;11.40;10.30;;;;;;;20.12;61.41;100064.47;131500;1252;107514;-81
2023/06/10 00:26:30;;;;;;;11.90;10.50;;;;;;;20.12;61.37;100069.65;131551;1250;107367;-81
2023/06/10 00:29:35;;;;;;;11.50;10.30;;;;;;;20.11;61.49;100070.64;131353;1253;108004;-82
2023/06/10 00:32:41;;;;;;;11.10;10.10;;;;;;;20.09;61.52;100071.05;131466;1254;107508;-81
2023/06/10 00:35:47;;;;;;;11.50;10.30;;;;;;;20.08;61.67;100075.34;131578;1252;107652;-81
2023/06/10 00:38:52;;;;;;;11.80;10.60;;;;;;;20.07;61.84;100071.45;131549;1250;106385;-81
2023/06/10 00:41:58;;;;;;;11.90;10.60;;;;;;;20.04;61.87;100069.57;131556;1256;107336;-81
2023/06/10 00:45:04;;;;;;;13.30;10.50;;;;;;;20.04;61.93;100075.13;131174;1265;107290;-81
2023/06/10 00:48:10;;;;;;;12.40;11.00;;;;;;;20.02;61.90;100072.48;131153;1255;107524;-81
2023/06/10 00:51:16;;;;;;;11.60;10.40;;;;;;;20.00;61.99;100079.90;131446;1253;107511;-81
2023/06/10 00:54:22;;;;;;;11.20;10.00;;;;;;;19.98;62.18;100083.83;131537;1252;107520;-81
2023/06/10 00:57:29;;;;;;;11.50;10.30;;;;;;;19.95;62.11;100086.17;131560;1253;107501;-81
2023/06/10 01:00:35;;;;;;;10.40;9.30;;;;;;;19.94;62.14;100093.02;131553;1251;107430;-81
2023/06/10 01:03:42;;;;;;;11.80;9.90;;;;;;;19.93;62.20;100092.41;131550;1249;107472;-80
2023/06/10 01:06:58;;;;;;;11.20;9.90;;;;;;;19.90;62.23;100092.39;131568;1254;106772;-81
2023/06/10 01:10:12;;;;;;;11.00;9.90;;;;;;;19.88;62.45;100096.48;131552;1252;107434;-81
2023/06/10 01:13:20;;;;;;;12.10;9.70;;;;;;;19.84;62.57;100092.08;131624;1252;107517;-81
2023/06/10 01:16:26;;;;;;;10.40;9.20;;;;;;;19.81;62.59;100093.64;131487;1253;107460;-81
2023/06/10 01:19:33;;;;;;;10.70;9.30;;;;;;;19.82;62.66;100097.31;131558;1252;107493;-80
2023/06/10 01:22:39;;;;;;;10.70;9.60;;;;;;;19.85;62.63;100099.63;131467;1254;108747;-81
2023/06/10 01:25:50;;;;;;;11.00;9.90;;;;;;;19.84;62.74;100102.95;131753;1252;107495;-81
2023/06/10 01:29:01;;;;;;;12.90;9.40;;;;;;;19.83;62.75;100109.10;131653;1253;107527;-81
2023/06/10 01:32:14;;;;;;;11.80;10.60;;;;;;;19.80;62.80;100111.43;131360;1253;107507;-80
2023/06/10 01:35:25;;;;;;;10.60;9.60;;;;;;;19.75;62.83;100110.89;131255;1252;107470;-81
2023/06/10 01:38:34;;;;;;;11.20;9.90;;;;;;;19.72;63.14;100115.11;131162;1255;107505;-84
2023/06/10 01:41:40;;;;;;;12.40;11.00;;;;;;;19.69;63.19;100117.02;131263;1253;107321;-83
2023/06/10 01:44:46;;;;;;;12.00;10.80;;;;;;;19.67;63.19;100118.89;131195;1250;107463;-83
2023/06/10 01:47:51;;;;;;;12.50;10.20;;;;;;;19.63;63.42;100120.88;131367;1250;107450;-83
2023/06/10 01:50:57;;;;;;;13.90;11.80;;;;;;;19.55;63.57;100118.73;131349;1250;107582;-83
2023/06/10 01:54:03;;;;;;;11.60;10.40;;;;;;;19.47;64.03;100123.04;131298;1253;107680;-83
2023/06/10 01:57:09;;;;;;;13.00;10.60;;;;;;;19.42;63.81;100127.92;131343;1253;107606;-83
2023/06/10 02:00:17;;;;;;;13.20;10.80;;;;;;;19.41;63.90;100130.59;131299;1252;107532;-83
2023/06/10 02:03:24;;;;;;;12.00;9.90;;;;;;;19.38;64.03;100131.17;131382;1254;106696;-83
2023/06/10 02:06:29;;;;;;;11.80;10.50;;;;;;;19.38;64.26;100124.69;131354;1265;155668;-83
2023/06/10 02:09:36;;;;;;;12.60;11.30;;;;;;;19.36;64.33;100125.94;131545;1250;107493;-82
2023/06/10 02:12:42;;;;;;;14.80;11.30;;;;;;;19.33;64.42;100129.70;131321;1256;107463;-82
2023/06/10 02:15:47;;;;;;;12.40;11.20;;;;;;;19.32;64.23;100129.90;131349;1255;107518;-81
2023/06/10 02:18:53;;;;;;;12.30;11.00;;;;;;;19.29;64.13;100125.81;131120;1252;107421;-81
2023/06/10 02:21:58;;;;;;;11.70;10.50;;;;;;;19.24;63.73;100132.61;131448;1253;107543;-81
2023/06/10 02:25:04;;;;;;;11.70;10.50;;;;;;;19.20;63.62;100138.67;131457;1252;107534;-81
2023/06/10 02:28:10;;;;;;;11.80;9.70;;;;;;;19.15;63.21;100134.42;131205;1252;107494;-80
2023/06/10 02:31:18;;;;;;;13.20;10.30;;;;;;;19.10;63.02;100132.39;131297;1253;107407;-82
2023/06/10 02:34:23;;;;;;;11.80;9.30;;;;;;;19.02;62.79;100135.08;131250;1251;107481;-81
2023/06/10 02:37:29;;;;;;;10.20;9.00;;;;;;;18.95;62.14;100139.79;131216;1251;107528;-82
2023/06/10 02:40:35;;;;;;;9.70;8.80;;;;;;;18.89;62.04;100137.17;131375;1255;107482;-82
2023/06/10 02:43:41;;;;;;;9.50;8.30;;;;;;;18.86;61.78;100138.60;131421;1256;107454;-82
2023/06/10 02:46:47;;;;;;;11.60;7.60;;;;;;;18.82;60.99;100140.10;131506;1250;107540;-81
2023/06/10 02:49:53;;;;;;;11.50;7.40;;;;;;;18.76;60.51;100143.90;131567;1250;106083;-81
2023/06/10 02:52:59;;;;;;;10.10;7.10;;;;;;;18.74;60.43;100144.11;131511;1255;106744;-81
2023/06/10 02:56:04;;;;;;;11.40;7.20;;;;;;;18.75;60.09;100146.36;131146;1250;106472;-82
2023/06/10 02:59:10;;;;;;;7.90;6.60;;;;;;;18.74;59.39;100152.34;131267;1253;107458;-82
2023/06/10 03:02:16;;;;;;;7.00;6.20;;;;;;;18.72;59.26;100151.93;131436;1256;106453;-81
2023/06/10 03:05:26;;;;;;;7.10;6.10;;;;;;;18.72;58.55;100146.52;131554;1252;107522;-82
2023/06/10 03:08:33;;;;;;;9.30;5.80;;;;;;;18.74;58.83;100148.05;131519;1251;107594;-81
2023/06/10 03:11:40;;;;;;;7.50;6.10;;;;;;;18.79;58.48;100148.36;131236;1250;107417;-81
2023/06/10 03:14:46;;;;;;;7.90;5.50;;;;;;;18.85;58.00;100146.88;131190;1255;107511;-82
2023/06/10 03:17:52;;;;;;;9.90;5.60;;;;;;;18.97;57.77;100149.48;131349;1250;107524;-82
2023/06/10 03:20:58;;;;;;;7.00;5.80;;;;;;;19.08;57.01;100149.03;131428;1254;107440;-82
2023/06/10 03:24:06;;;;;;;7.80;5.70;;;;;;;19.12;56.90;100149.98;131401;1251;107626;-82
2023/06/10 03:27:13;;;;;;;7.80;5.20;;;;;;;19.15;56.80;100155.14;131406;1254;107852;-82
2023/06/10 03:30:19;;;;;;;7.40;5.30;;;;;;;19.18;56.59;100157.00;131382;1255;107681;-83
2023/06/10 03:33:25;;;;;;;6.90;5.30;;;;;;;19.20;56.39;100158.41;131161;1255;106762;-82
2023/06/10 03:36:32;;;;;;;6.20;5.00;;;;;;;19.20;56.28;100160.33;131283;1250;107511;-83
2023/06/10 03:39:38;;;;;;;5.50;4.90;;;;;;;19.22;55.88;100165.31;131486;1253;107399;-82
2023/06/10 03:42:45;;;;;;;5.90;4.90;;;;;;;19.20;55.70;100166.65;131511;1255;107546;-82
2023/06/10 03:45:53;;;;;;;7.80;5.10;;;;;;;19.19;55.55;100166.20;131674;1250;109726;-82
2023/06/10 03:49:00;;;;;;;7.30;5.10;;;;;;;19.18;55.40;100173.42;131582;1253;107690;-82
2023/06/10 03:52:07;;;;;;;10.90;5.00;;;;;;;19.16;55.22;100172.86;131390;1253;107487;-82
2023/06/10 03:55:13;;;;;;;9.60;5.00;;;;;;;19.16;54.98;100176.48;131360;1253;107579;-82
2023/06/10 03:58:20;;;;;;;7.20;5.10;;;;;;;19.18;55.02;100172.77;131567;1255;107503;-81
2023/06/10 04:01:26;;;;;;;6.60;5.10;;;;;;;19.20;54.90;100172.31;131311;1252;107506;-82
2023/06/10 04:04:32;;;;;;;7.00;4.70;;;;;;;19.21;54.60;100172.27;131171;1250;107486;-81
2023/06/10 04:07:39;;;;;;;7.60;5.10;;;;;;;19.19;54.82;100178.84;131421;1250;107243;-82
2023/06/10 04:10:45;;;;;;;8.70;4.80;;;;;;;19.23;54.58;100181.96;131439;1255;108775;-81
2023/06/10 04:13:52;;;;;;;8.80;5.30;;;;;;;19.24;54.30;100180.38;131487;1253;107445;-82
2023/06/10 04:16:58;;;;;;;7.90;4.90;;;;;;;19.16;53.93;100185.09;131520;1256;107339;-82
2023/06/10 04:20:06;;;;;;;7.80;4.80;;;;;;;19.13;54.46;100186.65;131540;1254;107591;-82
2023/06/10 04:23:13;;;;;;;7.90;4.90;;;;;;;19.21;54.35;100189.25;131283;1253;107082;-83
2023/06/10 04:26:20;;;;;;;7.60;5.00;;;;;;;19.29;53.62;100188.40;131345;1254;107463;-80
2023/06/10 04:29:27;;;;;;;6.20;4.90;;;;;;;19.31;54.11;100192.77;131419;1250;107513;-80
2023/06/10 04:32:33;;;;;;;6.70;4.80;;;;;;;19.40;53.97;100193.02;131558;1253;107532;-81
2023/06/10 04:35:39;;;;;;;7.50;5.00;;;;;;;19.48;53.82;100199.29;131649;1250;107524;-81
2023/06/10 04:38:46;;;;;;;9.60;5.00;;;;;;;19.56;53.80;100202.14;131691;1254;107386;-81
2023/06/10 04:41:52;;;;;;;8.70;4.90;;;;;;;19.64;53.74;100202.15;131642;1256;107448;-81
2023/06/10 04:44:58;;;;;;;5.50;4.90;;;;;;;19.66;53.57;100200.27;131608;1254;107850;-81
2023/06/10 04:48:04;;;;;;;5.80;4.60;;;;;;;19.71;53.59;100199.27;131347;1251;107522;-82
2023/06/10 04:51:10;;;;;;;6.30;4.90;;;;;;;19.75;53.41;100198.90;131384;1253;106880;-81
2023/06/10 04:54:15;;;;;;;8.80;5.00;;;;;;;19.74;53.31;100202.89;131206;1250;107551;-81
2023/06/10 04:57:21;;;;;;;5.80;4.70;;;;;;;19.76;53.28;100202.34;131365;1252;107535;-81
2023/06/10 05:00:27;;;;;;;6.80;4.90;;;;;;;19.79;53.23;100204.25;131385;1250;107344;-81
2023/06/10 05:03:32;;;;;;;6.70;4.90;;;;;;;19.84;53.33;100201.02;131536;1256;107455;-82
2023/06/10 05:06:38;;;;;;;6.90;5.00;;;;;;;19.95;53.09;100204.02;131565;1250;107646;-81
2023/06/10 05:09:43;;;;;;;7.60;5.00;;;;;;;20.05;53.06;100204.16;131402;1254;107495;-81
2023/06/10 05:12:49;;;;;;;10.10;6.00;;;;;;;20.17;52.85;100202.14;131393;1250;107532;-81
2023/06/10 05:15:54;;;;;;;11.70;5.80;;;;;;;20.36;52.84;100201.73;131376;1259;107202;-81
2023/06/10 05:19:00;;;;;;;8.90;5.00;;;;;;;20.56;52.71;100205.48;131320;1252;107457;-81
2023/06/10 05:22:06;;;;;;;6.10;4.70;;;;;;;20.72;52.68;100202.63;131334;1252;107454;-82
2023/06/10 05:25:12;;;;;;;8.70;4.80;;;;;;;20.91;52.32;100208.09;131198;1256;108593;-81
2023/06/10 05:28:18;;;;;;;6.60;4.80;;;;;;;21.07;52.45;100212.40;131379;1253;107439;-81
2023/06/10 05:31:23;;;;;;;7.40;4.80;;;;;;;21.27;52.45;100211.93;131284;1253;107501;-81
2023/06/10 05:34:29;;;;;;;8.50;4.60;;;;;;;21.47;52.39;100213.21;131204;1252;106214;-81
2023/06/10 05:37:36;;;;;;;7.90;5.10;;;;;;;21.67;52.32;100213.14;131311;1252;107388;-81
2023/06/10 05:40:42;;;;;;;8.30;5.10;;;;;;;21.80;51.43;100215.36;131345;1250;107360;-81
2023/06/10 05:43:47;;;;;;;7.50;5.00;;;;;;;21.90;51.73;100212.52;131264;1255;107232;-81
2023/06/10 05:46:53;;;;;;;5.50;4.80;;;;;;;22.00;51.77;100207.79;131261;1253;107489;-81
2023/06/10 05:49:58;;;;;;;6.80;5.10;;;;;;;22.08;51.49;100212.77;131423;1250;107226;-81
2023/06/10 05:53:04;;;;;;;6.60;4.90;;;;;;;22.16;51.58;100213.33;131328;1253;107543;-82
2023/06/10 05:56:10;;;;;;;9.50;5.40;;;;;;;22.24;51.38;100218.38;131271;1253;107448;-82
2023/06/10 05:59:15;;;;;;;10.40;6.10;;;;;;;22.32;51.42;100217.91;131476;1254;107503;-82
2023/06/10 06:02:21;;;;;;;7.40;5.20;;;;;;;22.37;51.01;100221.95;131285;1253;106634;-82
2023/06/10 06:05:26;;;;;;;7.10;5.20;;;;;;;22.38;51.02;100221.87;131594;1260;107380;-81
2023/06/10 06:08:32;;;;;;;6.60;4.90;;;;;;;22.39;50.62;100221.45;131367;1253;108823;-82
2023/06/10 06:11:37;;;;;;;6.40;4.90;;;;;;;22.41;50.99;100221.92;131532;1251;107589;-82
2023/06/10 06:14:44;;;;;;;8.40;5.20;;;;;;;22.44;50.93;100227.52;131235;1263;106509;-80
2023/06/10 06:17:52;;;;;;;7.40;5.00;;;;;;;22.45;50.69;100225.38;131409;1253;107452;-79
2023/06/10 06:20:57;;;;;;;7.10;5.20;;;;;;;22.43;50.71;100230.30;131390;1257;107401;-80
2023/06/10 06:24:06;;;;;;;9.40;5.40;;;;;;;22.42;50.79;100228.09;131255;1253;107509;-80
2023/06/10 06:27:12;;;;;;;6.30;5.60;;;;;;;22.44;50.68;100232.41;131259;1250;106376;-79
2023/06/10 06:30:17;;;;;;;7.30;5.10;;;;;;;22.43;50.98;100230.47;131313;1253;107501;-79
2023/06/10 06:33:23;;;;;;;8.40;6.30;;;;;;;22.48;51.22;100226.95;131553;1253;107552;-77
2023/06/10 06:36:28;;;;;;;5.90;5.30;;;;;;;22.56;51.32;100230.31;131411;1269;107292;-77
2023/06/10 06:39:34;;;;;;;6.30;5.20;;;;;;;22.60;51.06;100227.44;131169;1253;107647;-77
2023/06/10 06:42:39;;;;;;;5.90;5.20;;;;;;;22.63;51.03;100228.27;131205;1254;107506;-79
2023/06/10 06:45:55;;;;;;;9.60;5.90;;;;;;;22.66;51.13;100227.70;131096;1253;107677;-78
2023/06/10 06:49:01;;;;;;;7.30;5.40;;;;;;;22.72;51.19;100229.86;131098;1254;106677;-78
2023/06/10 06:52:07;;;;;;;7.00;5.70;;;;;;;22.80;51.07;100229.77;131119;1253;107514;-81
2023/06/10 06:55:12;;;;;;;9.30;5.60;;;;;;;22.83;51.02;100232.09;131105;1262;107523;-79
2023/06/10 06:58:18;;;;;;;5.90;5.10;;;;;;;22.89;50.85;100232.77;131324;1252;107589;-79
2023/06/10 07:01:24;;;;;;;6.90;5.50;;;;;;;22.90;50.86;100238.30;131314;1256;107532;-79
2023/06/10 07:04:30;;;;;;;7.10;5.50;;;;;;;22.94;50.85;100242.14;131067;1261;107519;-80
2023/06/10 07:07:36;;;;;;;5.90;5.30;;;;;;;23.03;51.09;100244.00;131160;1262;106769;-80
2023/06/10 07:10:41;;;;;;;6.70;5.20;;;;;;;23.09;50.66;100245.04;131194;1251;107545;-79
2023/06/10 07:13:47;;;;;;;5.60;5.00;;;;;;;23.12;50.32;100243.91;131144;1261;107541;-80
2023/06/10 07:16:52;;;;;;;5.90;5.20;;;;;;;23.15;50.63;100249.63;131167;1255;107511;-80
2023/06/10 07:19:59;;;;;;;6.70;5.30;;;;;;;23.21;50.47;100250.54;131339;1253;107540;-80
2023/06/10 07:23:05;;;;;;;5.90;4.80;;;;;;;23.25;50.35;100254.55;131435;1253;107224;-79
2023/06/10 07:26:11;;;;;;;5.10;4.50;;;;;;;23.31;50.15;100254.92;131215;1261;108577;-78
2023/06/10 07:29:16;;;;;;;7.40;5.00;;;;;;;23.39;50.42;100251.22;131127;1256;107550;-80
2023/06/10 07:32:23;;;;;;;5.60;4.90;;;;;;;23.46;50.33;100250.78;131139;1254;107490;-80
2023/06/10 07:35:29;;;;;;;7.00;5.00;;;;;;;23.49;49.73;100256.52;131052;1253;107426;-82
2023/06/10 07:38:34;;;;;;;5.80;4.60;;;;;;;23.53;50.02;100255.29;131166;1252;107495;-79
2023/06/10 07:41:42;;;;;;;5.00;4.50;;;;;;;23.64;50.05;100254.23;131147;1252;105983;-79
2023/06/10 07:44:47;;;;;;;6.30;4.30;;;;;;;23.72;50.04;100254.89;131077;1254;107256;-81
2023/06/10 07:47:57;;;;;;;5.20;4.50;;;;;;;23.84;49.72;100252.92;131279;1251;107517;-79
2023/06/10 07:51:03;;;;;;;7.00;4.60;;;;;;;23.84;47.72;100254.34;131322;1263;106232;-78
2023/06/10 07:54:09;;;;;;;9.10;4.70;;;;;;;23.82;48.10;100255.50;131112;1254;107413;-81
2023/06/10 07:57:16;;;;;;;7.10;4.10;;;;;;;23.82;47.73;100258.88;131374;1251;108668;-79
2023/06/10 08:00:22;;;;;;;6.10;4.30;;;;;;;23.86;47.76;100259.62;131308;1253;107616;-81
2023/06/10 08:03:28;;;;;;;7.50;4.40;;;;;;;23.93;46.72;100264.17;131498;1253;105645;-80
2023/06/10 08:06:34;;;;;;;7.80;4.20;;;;;;;23.99;47.23;100266.09;131104;1251;107532;-82
2023/06/10 08:09:39;;;;;;;5.50;4.20;;;;;;;24.03;47.11;100269.39;131285;1254;108684;-78
2023/06/10 08:12:45;;;;;;;6.90;4.30;;;;;;;24.03;46.23;100265.15;131296;1254;106500;-80
2023/06/10 08:15:53;;;;;;;5.80;4.70;;;;;;;24.03;45.63;100266.13;131397;1255;107397;-81
2023/06/10 08:18:59;;;;;;;7.60;4.30;;;;;;;24.03;45.50;100263.40;131980;1251;107353;-81
2023/06/10 08:22:05;;;;;;;4.40;3.70;;;;;;;24.04;44.75;100261.79;132007;1252;106317;-81
2023/06/10 08:25:11;;;;;;;5.30;4.00;;;;;;;24.10;43.13;100269.58;132391;1251;107497;-81
2023/06/10 08:28:16;;;;;;;5.80;4.10;;;;;;;24.14;44.02;100267.42;132884;1251;107459;-81
2023/06/10 08:31:22;;;;;;;5.90;4.10;;;;;;;24.23;44.10;100264.81;131541;1253;108742;-82
2023/06/10 08:34:27;;;;;;;5.20;3.90;;;;;;;24.30;43.46;100269.43;131158;1253;105764;-82
2023/06/10 08:37:33;;;;;;;5.40;3.90;;;;;;;24.38;43.58;100266.91;131229;1262;107548;-82
2023/06/10 08:40:39;;;;;;;6.10;3.70;;;;;;;24.45;42.29;100266.17;131211;1255;105821;-82
2023/06/10 08:43:55;;;;;;;7.30;4.10;;;;;;;24.49;41.90;100265.41;131227;1251;108669;-82
2023/06/10 08:47:04;;;;;;;6.50;3.80;;;;;;;24.50;39.92;100266.70;131288;1251;107319;-82
2023/06/10 08:50:11;;;;;;;5.60;3.50;;;;;;;24.51;40.58;100270.60;131247;1253;108663;-80
2023/06/10 08:53:20;;;;;;;5.50;3.40;;;;;;;24.58;40.73;100263.38;131235;1263;107504;-81
2023/06/10 08:56:29;;;;;;;4.20;3.40;;;;;;;24.69;40.49;100261.83;131324;1251;107386;-81
2023/06/10 08:59:35;;;;;;;5.50;3.80;;;;;;;24.81;40.69;100263.17;131302;1250;107532;-82
2023/06/10 09:02:40;;;;;;;5.60;3.60;;;;;;;24.91;39.46;100266.05;131306;1254;107502;-82
2023/06/10 09:05:46;;;;;;;4.10;3.70;;;;;;;24.98;39.38;100273.81;131492;1251;107188;-82
2023/06/10 09:08:53;;;;;;;5.60;3.60;;;;;;;25.03;39.66;100266.70;131197;1254;107906;-82
2023/06/10 09:11:59;;;;;;;7.00;3.80;;;;;;;25.10;38.10;100275.30;131255;1253;106974;-84
2023/06/10 09:15:06;;;;;;;6.20;3.30;;;;;;;25.09;37.85;100275.20;131211;1254;109255;-82
2023/06/10 09:18:12;;;;;;;5.90;3.40;;;;;;;25.12;38.30;100271.04;131253;1261;107436;-82
2023/06/10 09:21:17;;;;;;;4.40;3.60;;;;;;;25.16;38.57;100266.52;131406;1251;107523;-81
2023/06/10 09:24:24;;;;;;;5.40;3.70;;;;;;;25.22;38.46;100264.77;131452;1262;107959;-81
2023/06/10 09:27:32;;;;;;;7.00;3.70;;;;;;;25.23;38.04;100266.75;131185;1255;108217;-82
2023/06/10 09:30:38;;;;;;;4.40;3.70;;;;;;;25.23;38.47;100269.95;131264;1253;107597;-82
2023/06/10 09:33:44;;;;;;;7.10;3.70;;;;;;;25.23;37.35;100265.76;131207;1263;107546;-82
2023/06/10 09:36:49;;;;;;;6.70;3.80;;;;;;;25.12;36.70;100271.02;131349;1253;106255;-82
2023/06/10 09:40:13;;;;;;;5.60;3.80;;;;;;;25.02;36.45;100275.37;131394;1260;107376;-83
2023/06/10 09:43:18;;;;;;;5.00;3.80;;;;;;;25.01;36.71;100277.69;131296;1252;107266;-83
2023/06/10 09:46:24;;;;;;;7.70;3.90;;;;;;;25.02;36.84;100274.16;131378;1251;107497;-83
2023/06/10 09:49:31;;;;;;;9.90;3.60;;;;;;;24.96;35.04;100275.36;131257;1252;108685;-82
2023/06/10 09:52:39;;;;;;;6.00;3.80;;;;;;;24.84;34.73;100278.61;131373;1254;108340;-84
2023/06/10 09:55:46;;;;;;;5.70;3.50;;;;;;;24.82;35.52;100277.48;131415;1252;107628;-83
2023/06/10 09:58:55;;;;;;;6.90;3.30;;;;;;;24.77;34.05;100283.30;131287;1254;107935;-82
2023/06/10 10:02:01;;;;;;;5.00;3.80;;;;;;;24.69;34.71;100284.53;131265;1263;107546;-82
2023/06/10 10:05:07;;;;;;;4.80;3.50;;;;;;;24.74;35.02;100284.27;131459;1253;107523;-82
2023/06/10 10:08:13;;;;;;;4.20;3.60;;;;;;;24.80;35.05;100273.95;131427;1252;107241;-82
2023/06/10 10:11:21;;;;;;;4.00;3.60;;;;;;;24.90;35.38;100274.39;131269;1254;107403;-82
2023/06/10 10:14:27;;;;;;;6.70;3.80;;;;;;;24.98;35.78;100277.25;131569;1252;107430;-82
2023/06/10 10:17:33;;;;;;;4.90;3.80;;;;;;;25.06;35.95;100272.70;131555;1248;106077;-83
2023/06/10 10:20:47;;;;;;;7.80;4.20;;;;;;;25.15;36.05;100269.45;131288;1251;107261;-83
2023/06/10 10:23:59;;;;;;;8.60;3.20;;;;;;;25.20;35.34;100277.28;131531;1248;107429;-83
2023/06/10 10:27:11;;;;;;;6.70;3.20;;;;;;;25.27;33.30;100283.86;131278;1251;108394;-82
2023/06/10 10:30:18;;;;;;;6.20;3.30;;;;;;;25.26;32.38;100283.04;131540;1254;107227;-82
2023/06/10 10:33:31;;;;;;;5.70;3.00;;;;;;;25.21;32.96;100284.11;131428;1251;108740;-82
2023/06/10 10:36:37;;;;;;;5.90;3.30;;;;;;;25.13;31.53;100286.79;131517;1254;106854;-82
2023/06/10 10:39:44;;;;;;;5.20;3.70;;;;;;;25.07;32.06;100286.48;131242;1254;107318;-82
2023/06/10 10:42:52;;;;;;;11.50;3.80;;;;;;;24.98;32.48;100284.74;131289;1251;106518;-82
2023/06/10 10:46:03;;;;;;;5.20;3.60;;;;;;;25.03;33.35;100287.66;131531;1254;108602;-82
2023/06/10 10:49:10;;;;;;;4.00;3.20;;;;;;;25.15;33.56;100289.27;131539;1252;107350;-82
2023/06/10 10:52:15;;;;;;;4.90;3.80;;;;;;;25.23;33.58;100287.84;131539;1254;107526;-82
2023/06/10 10:55:21;;;;;;;5.50;3.50;;;;;;;25.24;33.03;100291.86;131451;1252;107515;-82
2023/06/10 10:58:27;;;;;;;6.10;3.40;;;;;;;25.25;33.35;100287.00;131490;1254;107482;-82
2023/06/10 11:01:45;;;;;;;4.00;3.30;;;;;;;25.31;32.99;100283.98;131389;1254;107310;-82
2023/06/10 11:04:51;;;;;;;3.70;3.20;;;;;;;25.34;32.59;100283.80;131371;1254;107520;-82
2023/06/10 11:07:57;;;;;;;4.90;3.70;;;;;;;25.39;33.43;100281.74;131257;1254;107157;-81
2023/06/10 11:11:18;;;;;;;7.60;3.70;;;;;;;25.46;33.20;100277.48;131296;1264;108146;-82
2023/06/10 11:14:31;;;;;;;7.20;3.40;;;;;;;25.48;33.02;100273.35;131442;1253;107569;-82
2023/06/10 11:17:37;;;;;;;4.50;3.50;;;;;;;25.52;32.96;100269.37;131448;1254;108221;-82
2023/06/10 11:20:57;;;;;;;6.00;3.40;;;;;;;25.55;32.97;100263.88;131179;1264;107527;-82
2023/06/10 11:24:12;;;;;;;5.40;3.40;;;;;;;25.56;32.57;100273.14;131242;1255;107402;-82
2023/06/10 11:27:24;;;;;;;4.80;3.60;;;;;;;25.57;32.59;100268.18;131440;1261;107237;-83
2023/06/10 11:30:35;;;;;;;4.30;3.90;;;;;;;25.57;32.38;100266.76;131569;1250;107566;-81
2023/06/10 11:33:42;;;;;;;5.40;3.60;;;;;;;25.49;32.30;100260.42;131420;1252;106611;-81
2023/06/10 11:36:48;;;;;;;4.50;3.20;;;;;;;25.45;32.28;100261.02;131497;1251;107419;-81
2023/06/10 11:39:56;;;;;;;4.50;3.50;;;;;;;25.42;31.92;100258.57;131233;1254;107555;-81
2023/06/10 11:43:02;;;;;;;4.40;3.30;;;;;;;25.44;32.43;100261.02;131405;1253;107565;-81
2023/06/10 11:46:08;;;;;;;4.60;3.30;;;;;;;25.50;32.27;100264.30;131402;1264;107527;-80
2023/06/10 11:49:15;;;;;;;3.80;3.10;;;;;;;25.46;31.88;100259.98;131460;1252;107468;-82
2023/06/10 11:52:29;;;;;;;3.60;3.00;;;;;;;25.53;32.17;100261.95;131322;1253;107281;-81
2023/06/10 11:55:47;;;;;;;5.70;3.80;;;;;;;25.57;31.65;100260.37;131307;1254;107597;-81
2023/06/10 11:58:57;;;;;;;6.10;3.50;;;;;;;25.61;32.23;100258.17;131272;1254;107603;-81
2023/06/10 12:02:15;;;;;;;5.70;4.00;;;;;;;25.62;32.39;100249.71;131376;1250;107406;-80
2023/06/10 12:05:21;;;;;;;4.80;3.60;;;;;;;25.64;32.38;100249.04;131567;1253;107430;-80
2023/06/10 12:08:27;;;;;;;5.00;3.50;;;;;;;25.65;32.49;100237.24;131450;1254;106463;-87
2023/06/10 12:11:33;;;;;;;6.30;3.50;;;;;;;25.67;32.50;100239.17;131483;1251;108631;-82
2023/06/10 12:14:57;;;;;;;6.30;3.80;;;;;;;25.73;32.86;100237.01;131409;1249;107096;-82
2023/06/10 12:18:03;;;;;;;5.40;3.20;;;;;;;25.83;32.01;100235.50;131204;1248;107369;-82
2023/06/10 12:21:23;;;;;;;6.70;4.00;;;;;;;25.92;32.53;100229.83;131352;1255;107531;-82
2023/06/10 12:24:28;;;;;;;4.00;3.50;;;;;;;26.05;32.82;100231.95;131255;1253;107381;-81
2023/06/10 12:27:39;;;;;;;4.60;3.80;;;;;;;26.16;33.00;100231.36;131335;1250;107492;-83
2023/06/10 12:30:44;;;;;;;8.90;3.80;;;;;;;26.18;32.78;100226.36;131338;1251;107563;-83
2023/06/10 12:33:51;;;;;;;5.40;3.80;;;;;;;26.21;32.84;100227.59;131451;1251;107810;-83
2023/06/10 12:36:56;;;;;;;5.80;3.40;;;;;;;26.25;32.77;100224.30;131331;1250;107440;-83
2023/06/10 12:40:03;;;;;;;5.10;3.70;;;;;;;26.26;32.37;100227.10;131507;1251;107525;-82
2023/06/10 12:43:10;;;;;;;4.30;3.70;;;;;;;26.26;32.14;100223.21;131433;1253;106976;-83
2023/06/10 12:46:16;;;;;;;5.70;3.50;;;;;;;26.28;32.27;100219.84;131300;1261;108012;-82
2023/06/10 12:49:23;;;;;;;7.70;3.70;;;;;;;26.29;32.08;100221.21;131653;1253;107454;-82
2023/06/10 12:52:28;;;;;;;5.60;3.50;;;;;;;26.12;31.34;100227.77;131381;1253;107308;-81
2023/06/10 12:55:34;;;;;;;4.10;3.20;;;;;;;25.87;31.40;100224.30;131391;1255;107633;-82
2023/06/10 12:58:40;;;;;;;4.00;3.30;;;;;;;25.63;31.33;100223.93;131389;1249;108622;-82
2023/06/10 13:01:50;;;;;;;4.10;3.30;;;;;;;25.56;30.96;100215.38;131277;1252;107420;-83
2023/06/10 13:04:56;;;;;;;6.40;3.60;;;;;;;25.58;31.41;100214.86;131406;1253;107494;-83
2023/06/10 13:08:02;;;;;;;8.40;4.50;;;;;;;25.67;31.22;100213.93;131232;1254;107517;-83
2023/06/10 13:11:07;;;;;;;6.90;4.90;;;;;;;25.73;30.67;100212.70;131334;1248;107254;-83
2023/06/10 13:14:14;;;;;;;5.90;3.90;;;;;;;25.72;30.14;100213.39;131425;1248;107589;-82
2023/06/10 13:17:21;;;;;;;4.60;3.50;;;;;;;25.71;30.00;100208.08;131437;1248;107147;-83
2023/06/10 13:20:26;;;;;;;3.90;3.40;;;;;;;25.71;29.92;100207.20;131469;1260;107222;-81
2023/06/10 13:23:32;;;;;;;4.80;3.10;;;;;;;25.73;29.61;100210.73;131484;1254;107558;-83
2023/06/10 13:26:37;;;;;;;5.00;3.10;;;;;;;25.67;28.13;100209.01;131316;1251;107487;-81
2023/06/10 13:29:43;;;;;;;4.40;3.00;;;;;;;25.63;28.71;100211.27;131239;1255;107255;-83
2023/06/10 13:32:49;;;;;;;4.40;2.90;;;;;;;25.60;28.13;100205.70;131224;1263;107280;-81
2023/06/10 13:35:54;;;;;;;3.60;3.10;;;;;;;25.64;28.78;100203.95;131480;1253;107614;-82
2023/06/10 13:39:00;;;;;;;3.50;2.80;;;;;;;25.69;28.67;100206.14;131508;1259;106655;-81
2023/06/10 13:42:07;;;;;;;3.50;2.80;;;;;;;25.71;28.44;100204.35;131425;1254;108772;-81
2023/06/10 13:45:13;;;;;;;7.00;3.00;;;;;;;25.71;28.73;100198.08;131544;1251;107353;-82
2023/06/10 13:48:20;;;;;;;3.40;3.00;;;;;;;25.74;28.21;100205.33;131471;1258;107435;-81
2023/06/10 13:51:25;;;;;;;5.10;3.60;;;;;;;25.74;28.30;100197.84;131501;1251;107582;-81
2023/06/10 13:54:31;;;;;;;4.20;3.20;;;;;;;25.75;27.83;100195.02;131124;1250;107224;-81
2023/06/10 13:57:36;;;;;;;5.70;3.30;;;;;;;25.74;28.17;100196.75;131164;1250;107033;-81
2023/06/10 14:00:42;;;;;;;5.50;3.50;;;;;;;25.75;28.50;100192.34;131406;1253;107574;-81
2023/06/10 14:03:47;;;;;;;5.90;3.30;;;;;;;25.75;28.51;100195.02;131196;1250;107065;-85
2023/06/10 14:06:53;;;;;;;4.60;3.50;;;;;;;25.75;28.76;100190.79;131066;1251;114176;-82